CPX286 Details

Departure: Fort Worth Alliance Airport (KAFW)
Arrival: Seattle-Tacoma International Airport (KSEA)
Route: SWABR5 HUDAD PNH ALS JNC TCH TWF BKE PDT CHINS3


Current Weather Information
KAFW 250153Z 15015KT 10SM FEW180 BKN280 28/19 A2991 RMK AO2 SLP113 T02830189
KSEA 250153Z 22007KT 10SM FEW036 BKN055 BKN075 14/08 A2994 RMK AO2 SLP145 T01390078